createdAt,value
2023-10-10T00:00:24.541Z,14.10
2023-10-10T00:02:52.653Z,14.95
2023-10-10T00:05:28.344Z,14.32
2023-10-10T00:08:00.742Z,15.07
2023-10-10T00:10:32.216Z,13.65
2023-10-10T00:13:05.121Z,17.00
2023-10-10T00:18:08.366Z,18.10
2023-10-10T00:20:45.790Z,16.35
2023-10-10T00:23:16.880Z,16.13
2023-10-10T00:25:46.435Z,16.52
2023-10-10T00:28:19.594Z,14.73
2023-10-10T00:30:47.135Z,15.88
2023-10-10T00:33:22.580Z,15.18
2023-10-10T00:35:50.105Z,17.52
2023-10-10T00:38:25.623Z,15.57
2023-10-10T00:40:55.870Z,17.02
2023-10-10T00:43:25.146Z,15.48
2023-10-10T00:45:53.613Z,14.82
2023-10-10T00:48:23.391Z,14.38
2023-10-10T00:50:54.503Z,14.88
2023-10-10T00:53:24.407Z,16.73
2023-10-10T00:55:57.889Z,17.92
2023-10-10T00:58:37.076Z,18.55
2023-10-10T01:03:50.502Z,16.55
2023-10-10T01:06:27.504Z,19.42
2023-10-10T01:09:16.935Z,15.85
2023-10-10T01:11:44.434Z,17.92
2023-10-10T01:14:19.515Z,13.90
2023-10-10T01:16:48.935Z,20.02
2023-10-10T01:19:19.318Z,18.77
2023-10-10T01:21:51.763Z,20.67
2023-10-10T01:24:19.243Z,17.13
2023-10-10T01:26:46.671Z,15.55
2023-10-10T01:29:26.912Z,18.75
2023-10-10T01:31:55.106Z,18.48
2023-10-10T01:34:32.637Z,17.45
2023-10-10T01:37:01.405Z,24.98
2023-10-10T01:39:35.643Z,20.35
2023-10-10T01:42:03.221Z,17.75
2023-10-10T01:44:30.731Z,19.40
2023-10-10T01:47:00.226Z,20.95
2023-10-10T01:49:30.664Z,19.75
2023-10-10T01:52:00.599Z,21.42
2023-10-10T01:54:42.525Z,20.17
2023-10-10T01:57:21.922Z,23.35
2023-10-10T01:59:50.266Z,22.55
2023-10-10T02:02:20.288Z,20.80
2023-10-10T02:04:49.015Z,21.55
2023-10-10T02:07:27.227Z,19.15
2023-10-10T02:10:00.702Z,22.55
2023-10-10T02:12:28.996Z,21.70
2023-10-10T02:14:56.211Z,21.73
2023-10-10T02:17:27.654Z,19.38
2023-10-10T02:20:01.135Z,23.17
2023-10-10T02:22:34.890Z,22.42
2023-10-10T02:25:21.293Z,23.38
2023-10-10T02:27:56.313Z,23.13
2023-10-10T02:30:36.264Z,23.20
2023-10-10T02:33:17.933Z,21.73
2023-10-10T02:35:56.109Z,25.52
2023-10-10T02:38:24.730Z,24.55
2023-10-10T02:40:57.387Z,24.20
2023-10-10T02:43:47.246Z,19.73
2023-10-10T02:46:19.384Z,20.92
2023-10-10T02:48:46.695Z,24.80
2023-10-10T02:51:17.302Z,22.52
2023-10-10T02:53:47.919Z,24.75
2023-10-10T02:56:19.875Z,23.98
2023-10-10T02:58:49.861Z,28.20
2023-10-10T03:01:43.208Z,23.67
2023-10-10T03:04:10.728Z,26.90
2023-10-10T03:06:39.227Z,28.75
2023-10-10T03:09:35.233Z,28.52
2023-10-10T03:12:06.592Z,34.25
2023-10-10T03:14:36.175Z,33.78
2023-10-10T03:17:29.356Z,37.67
2023-10-10T03:20:26.398Z,38.00
2023-10-10T03:23:09.278Z,38.30
2023-10-10T03:25:52.340Z,38.35
2023-10-10T03:28:22.114Z,48.22
2023-10-10T03:31:09.540Z,47.65
2023-10-10T03:33:43.633Z,47.15
2023-10-10T03:36:19.273Z,66.80
2023-10-10T03:38:53.602Z,53.95
2023-10-10T03:41:24.986Z,59.10
2023-10-10T03:44:14.781Z,58.17
2023-10-10T03:47:03.195Z,50.17
2023-10-10T03:49:52.686Z,57.50
2023-10-10T03:52:38.679Z,56.70
2023-10-10T03:55:24.522Z,60.15
2023-10-10T03:58:10.328Z,59.90
2023-10-10T04:00:56.334Z,54.25
2023-10-10T04:03:42.521Z,66.97
2023-10-10T04:06:48.072Z,63.28
2023-10-10T04:09:33.930Z,59.53
2023-10-10T04:12:19.811Z,58.17
2023-10-10T04:15:05.685Z,51.05
2023-10-10T04:17:51.553Z,54.22
2023-10-10T04:20:37.513Z,51.50
2023-10-10T04:23:23.700Z,53.30
2023-10-10T04:26:20.281Z,47.50
2023-10-10T04:29:06.617Z,51.30
2023-10-10T04:31:52.597Z,52.63
2023-10-10T04:34:38.341Z,48.67
2023-10-10T04:37:24.404Z,51.55
2023-10-10T04:40:10.470Z,46.92
2023-10-10T04:42:56.335Z,46.45
2023-10-10T04:45:42.087Z,53.00
2023-10-10T04:48:27.982Z,50.60
2023-10-10T04:51:14.062Z,50.20
2023-10-10T04:54:00.221Z,50.38
2023-10-10T04:56:46.177Z,48.58
2023-10-10T04:59:32.048Z,49.17
2023-10-10T05:02:17.935Z,44.72
2023-10-10T05:05:03.957Z,46.20
2023-10-10T05:07:50.812Z,49.35
2023-10-10T05:10:36.926Z,49.63
2023-10-10T05:13:22.960Z,50.17
2023-10-10T05:16:09.158Z,54.10
2023-10-10T05:18:54.835Z,50.72
2023-10-10T05:21:40.420Z,54.05
2023-10-10T05:26:47.663Z,55.20
2023-10-10T05:29:15.884Z,50.30
2023-10-10T05:31:45.950Z,57.28
2023-10-10T05:34:16.228Z,52.20
2023-10-10T05:36:46.028Z,57.65
2023-10-10T05:39:18.829Z,58.58
2023-10-10T05:41:48.536Z,57.67
2023-10-10T05:44:20.139Z,59.60
2023-10-10T05:46:48.797Z,60.25
2023-10-10T05:49:16.293Z,56.97
2023-10-10T05:51:43.539Z,61.63
2023-10-10T05:54:13.697Z,53.25
2023-10-10T05:56:42.555Z,61.65
2023-10-10T05:59:09.853Z,57.08
2023-10-10T06:01:38.788Z,57.90
2023-10-10T06:04:08.576Z,55.45
2023-10-10T06:06:37.339Z,56.88
2023-10-10T06:09:06.413Z,57.22
2023-10-10T06:11:35.778Z,54.58
2023-10-10T06:14:05.407Z,57.45
2023-10-10T06:16:33.717Z,51.28
2023-10-10T06:19:02.538Z,48.45
2023-10-10T06:21:30.790Z,55.92
2023-10-10T06:23:58.369Z,53.33
2023-10-10T06:26:25.769Z,48.58
2023-10-10T06:28:54.810Z,55.47
2023-10-10T06:31:22.934Z,52.45
2023-10-10T06:33:57.585Z,54.30
2023-10-10T06:36:25.252Z,51.72
2023-10-10T06:39:05.763Z,54.28
2023-10-10T06:41:37.672Z,57.90
2023-10-10T06:44:05.686Z,54.25
2023-10-10T06:46:33.754Z,53.50
2023-10-10T06:49:05.805Z,53.92
2023-10-10T06:51:34.790Z,57.17
2023-10-10T06:54:04.700Z,53.47
2023-10-10T06:56:55.039Z,53.75
2023-10-10T06:59:28.126Z,53.40
2023-10-10T07:01:58.302Z,55.15
2023-10-10T07:04:28.529Z,54.33
2023-10-10T07:07:01.837Z,51.15
2023-10-10T07:09:30.599Z,56.75
2023-10-10T07:12:10.977Z,57.97
2023-10-10T07:14:45.209Z,56.25
2023-10-10T07:17:13.302Z,53.15
2023-10-10T07:20:02.074Z,57.25
2023-10-10T07:22:34.520Z,53.80
2023-10-10T07:25:08.773Z,57.05
2023-10-10T07:27:36.924Z,54.92
2023-10-10T07:30:17.489Z,57.65
2023-10-10T07:32:45.527Z,50.03
2023-10-10T07:35:15.932Z,54.58
2023-10-10T07:37:46.598Z,55.78
2023-10-10T07:40:14.852Z,53.42
2023-10-10T07:42:42.274Z,54.55
2023-10-10T07:45:15.548Z,56.97
2023-10-10T07:47:58.443Z,55.13
2023-10-10T07:50:36.285Z,50.17
2023-10-10T07:53:05.952Z,50.70
2023-10-10T07:55:36.009Z,46.22
2023-10-10T07:58:07.467Z,50.13
2023-10-10T08:00:38.961Z,48.38
2023-10-10T08:03:13.734Z,50.25
2023-10-10T08:05:44.037Z,51.13
2023-10-10T08:08:14.442Z,52.33
2023-10-10T08:10:43.521Z,54.90
2023-10-10T08:13:13.777Z,55.05
2023-10-10T08:15:51.342Z,53.55
2023-10-10T08:18:40.273Z,48.83
2023-10-10T08:21:11.626Z,47.92
2023-10-10T08:23:44.187Z,46.38
2023-10-10T08:26:19.101Z,48.65
2023-10-10T08:28:47.195Z,53.03
2023-10-10T08:31:14.977Z,52.78
2023-10-10T08:33:46.128Z,47.63
2023-10-10T08:36:25.941Z,45.83
2023-10-10T08:38:57.423Z,45.40
2023-10-10T08:41:28.685Z,46.95
2023-10-10T08:43:59.297Z,46.60
2023-10-10T08:46:41.779Z,47.67
2023-10-10T08:49:10.080Z,46.97
2023-10-10T08:51:40.389Z,48.00
2023-10-10T08:54:12.171Z,46.67
2023-10-10T08:57:01.866Z,48.45
2023-10-10T08:59:30.484Z,45.55
2023-10-10T09:02:18.292Z,43.60
2023-10-10T09:04:46.060Z,41.35
2023-10-10T09:07:21.490Z,42.05
2023-10-10T09:10:05.826Z,42.40
2023-10-10T09:12:34.740Z,38.60
2023-10-10T09:15:17.898Z,39.63
2023-10-10T09:17:46.837Z,35.90
2023-10-10T09:20:24.186Z,38.78
2023-10-10T09:23:05.873Z,39.55
2023-10-10T09:25:42.829Z,35.75
2023-10-10T09:28:11.835Z,36.10
2023-10-10T09:30:46.736Z,37.72
2023-10-10T09:33:14.865Z,40.17
2023-10-10T09:35:47.159Z,32.47
2023-10-10T09:38:18.519Z,33.45
2023-10-10T09:40:49.030Z,33.28
2023-10-10T09:43:36.299Z,31.10
2023-10-10T09:46:25.035Z,31.17
2023-10-10T09:48:58.519Z,29.58
2023-10-10T09:51:51.741Z,31.48
2023-10-10T09:54:26.456Z,31.02
2023-10-10T09:56:57.338Z,31.75
2023-10-10T09:59:29.787Z,28.55
2023-10-10T10:02:06.133Z,31.38
2023-10-10T10:04:39.417Z,27.65
2023-10-10T10:07:30.266Z,30.17
2023-10-10T10:10:10.368Z,26.52
2023-10-10T10:12:46.272Z,26.77
2023-10-10T10:15:29.808Z,27.67
2023-10-10T10:18:12.060Z,31.15
2023-10-10T10:20:50.542Z,29.38
2023-10-10T10:23:27.495Z,25.80
2023-10-10T10:25:55.710Z,26.45
2023-10-10T10:28:32.130Z,29.85
2023-10-10T10:31:05.744Z,29.05
2023-10-10T10:33:36.329Z,28.15
2023-10-10T10:36:16.641Z,30.67
2023-10-10T10:39:04.103Z,28.95
2023-10-10T10:41:44.012Z,25.42
2023-10-10T10:44:14.208Z,28.83
2023-10-10T10:46:42.264Z,26.73
2023-10-10T10:49:13.955Z,28.55
2023-10-10T10:51:43.911Z,25.92
2023-10-10T10:54:30.971Z,26.45
2023-10-10T10:57:04.047Z,26.02
2023-10-10T10:59:37.723Z,27.15
2023-10-10T11:02:15.544Z,25.80
2023-10-10T11:04:50.739Z,26.42
2023-10-10T11:07:27.560Z,23.83
2023-10-10T11:10:08.150Z,26.50
2023-10-10T11:12:38.157Z,26.88
2023-10-10T11:15:09.249Z,24.80
2023-10-10T11:17:40.125Z,24.08
2023-10-10T11:20:41.798Z,26.08
2023-10-10T11:23:13.227Z,24.83
2023-10-10T11:25:47.911Z,27.10
2023-10-10T11:28:24.800Z,24.58
2023-10-10T11:30:52.776Z,25.85
2023-10-10T11:33:47.246Z,24.15
2023-10-10T11:36:24.461Z,23.85
2023-10-10T11:38:57.751Z,24.45
2023-10-10T11:41:32.310Z,23.23
2023-10-10T11:44:03.082Z,21.92
2023-10-10T11:46:31.580Z,23.90
2023-10-10T11:49:01.060Z,22.85
2023-10-10T11:51:37.620Z,22.40
2023-10-10T11:54:04.844Z,22.52
2023-10-10T11:56:35.546Z,22.75
2023-10-10T11:59:11.105Z,25.73
2023-10-10T12:01:52.674Z,23.33
2023-10-10T12:04:32.578Z,21.17
2023-10-10T12:07:03.466Z,23.48
2023-10-10T12:12:00.840Z,20.42
2023-10-10T12:14:31.473Z,22.58
2023-10-10T12:16:59.352Z,21.15
2023-10-10T12:19:37.382Z,22.20
2023-10-10T12:22:16.850Z,25.98
2023-10-10T12:24:44.201Z,21.20
2023-10-10T12:27:11.635Z,24.35
2023-10-10T12:29:42.376Z,26.65
2023-10-10T12:32:16.937Z,23.30
2023-10-10T12:34:44.578Z,23.73
2023-10-10T12:37:11.751Z,24.55
2023-10-10T12:39:39.265Z,21.88
2023-10-10T12:42:08.852Z,21.30
2023-10-10T12:44:36.329Z,22.88
2023-10-10T12:47:07.558Z,23.63
2023-10-10T12:49:37.933Z,23.20
2023-10-10T12:52:13.033Z,23.38
2023-10-10T12:54:42.821Z,23.25
2023-10-10T12:57:15.167Z,27.08
2023-10-10T12:59:47.588Z,22.00
2023-10-10T13:02:16.766Z,25.15
2023-10-10T13:04:48.213Z,22.60
2023-10-10T13:07:17.540Z,22.25
2023-10-10T13:09:47.596Z,20.70
2023-10-10T13:12:28.397Z,23.60
2023-10-10T13:15:07.607Z,20.65
2023-10-10T13:17:51.260Z,22.33
2023-10-10T13:20:19.913Z,22.30
2023-10-10T13:22:51.751Z,21.15
2023-10-10T13:25:20.400Z,23.13
2023-10-10T13:27:47.795Z,20.75
2023-10-10T13:30:15.181Z,26.00
2023-10-10T13:32:43.889Z,19.77
2023-10-10T13:35:11.824Z,21.02
2023-10-10T13:37:44.367Z,24.48
2023-10-10T13:40:22.004Z,21.30
2023-10-10T13:42:49.270Z,20.27
2023-10-10T13:45:22.564Z,19.52
2023-10-10T13:47:49.893Z,18.58
2023-10-10T13:50:29.511Z,21.10
2023-10-10T13:52:57.351Z,21.42
2023-10-10T13:55:24.523Z,20.60
2023-10-10T13:57:51.704Z,17.05
2023-10-10T14:00:37.341Z,21.73
2023-10-10T14:03:05.744Z,21.60
2023-10-10T14:05:42.811Z,22.83
2023-10-10T14:08:18.995Z,20.20
2023-10-10T14:10:51.256Z,18.83
2023-10-10T14:13:21.330Z,17.48
2023-10-10T14:15:59.164Z,19.40
2023-10-10T14:18:31.048Z,19.75
2023-10-10T14:21:02.472Z,20.50
2023-10-10T14:23:31.268Z,21.38
2023-10-10T14:26:13.738Z,17.30
2023-10-10T14:28:54.245Z,20.13
2023-10-10T14:31:23.176Z,17.17
2023-10-10T14:33:51.127Z,21.13
2023-10-10T14:36:18.540Z,19.40
2023-10-10T14:38:46.315Z,17.52
2023-10-10T14:41:18.854Z,17.55
2023-10-10T14:43:49.672Z,15.32
2023-10-10T14:46:25.212Z,17.08
2023-10-10T14:49:01.791Z,19.13
2023-10-10T14:51:35.211Z,15.63
2023-10-10T14:54:12.941Z,16.83
2023-10-10T14:56:52.712Z,16.15
2023-10-10T14:59:22.094Z,16.02
2023-10-10T15:01:49.494Z,17.10
2023-10-10T15:04:20.869Z,12.32
2023-10-10T15:06:49.196Z,17.35
2023-10-10T15:09:20.671Z,16.13
2023-10-10T15:11:48.543Z,15.07
2023-10-10T15:14:19.956Z,15.40
2023-10-10T15:16:50.695Z,14.77
2023-10-10T15:19:18.279Z,14.18
2023-10-10T15:21:49.465Z,14.50
2023-10-10T15:24:16.852Z,16.42
2023-10-10T15:26:48.800Z,13.90
2023-10-10T15:29:17.483Z,14.90
2023-10-10T15:31:45.066Z,13.07
2023-10-10T15:34:13.073Z,15.05
2023-10-10T15:36:44.786Z,15.57
2023-10-10T15:39:12.369Z,14.75
2023-10-10T15:41:41.948Z,13.02
2023-10-10T15:44:10.828Z,14.38
2023-10-10T15:46:41.361Z,12.63
2023-10-10T15:49:29.037Z,15.02
2023-10-10T15:52:04.791Z,12.52
2023-10-10T15:54:35.335Z,13.93
2023-10-10T15:57:07.545Z,14.60
2023-10-10T15:59:34.961Z,13.80
2023-10-10T16:02:02.153Z,13.13
2023-10-10T16:04:29.502Z,12.75
2023-10-10T16:06:59.343Z,14.25
2023-10-10T16:09:32.757Z,13.32
2023-10-10T16:12:00.061Z,13.23
2023-10-10T16:14:27.757Z,15.90
2023-10-10T16:16:55.897Z,13.88
2023-10-10T16:19:33.527Z,12.55
2023-10-10T16:22:02.378Z,15.25
2023-10-10T16:24:29.677Z,13.73
2023-10-10T16:27:00.834Z,13.85
2023-10-10T16:29:34.415Z,15.15
2023-10-10T16:32:03.481Z,12.68
2023-10-10T16:34:33.332Z,12.52
2023-10-10T16:37:00.576Z,11.85
2023-10-10T16:39:27.367Z,13.80
2023-10-10T16:41:59.665Z,12.52
2023-10-10T16:44:27.535Z,11.73
2023-10-10T16:46:54.852Z,12.65
2023-10-10T16:49:24.050Z,12.75
2023-10-10T16:51:51.552Z,10.00
2023-10-10T16:54:20.010Z,14.73
2023-10-10T16:56:47.217Z,14.27
2023-10-10T16:59:15.691Z,14.00
2023-10-10T17:01:43.391Z,16.05
2023-10-10T17:04:10.964Z,11.93
2023-10-10T17:06:38.201Z,12.30
2023-10-10T17:09:05.684Z,17.73
2023-10-10T17:11:33.145Z,14.63
2023-10-10T17:14:04.360Z,15.50
2023-10-10T17:16:33.189Z,13.40
2023-10-10T17:19:10.959Z,14.30
2023-10-10T17:21:48.581Z,12.57
2023-10-10T17:24:16.763Z,12.35
2023-10-10T17:26:44.762Z,13.02
2023-10-10T17:29:16.495Z,14.23
2023-10-10T17:31:44.134Z,13.38
2023-10-10T17:34:16.808Z,13.95
2023-10-10T17:36:44.455Z,13.70
2023-10-10T17:39:16.547Z,15.48
2023-10-10T17:44:17.219Z,17.15
2023-10-10T17:46:44.765Z,12.43
2023-10-10T17:49:11.969Z,17.75
2023-10-10T17:51:39.221Z,13.57
2023-10-10T17:54:06.541Z,12.90
2023-10-10T17:56:34.556Z,13.18
2023-10-10T17:59:01.862Z,14.68
2023-10-10T18:01:30.234Z,14.90
2023-10-10T18:03:57.808Z,12.50
2023-10-10T18:06:27.292Z,16.52
2023-10-10T18:09:08.945Z,14.80
2023-10-10T18:11:37.481Z,12.18
2023-10-10T18:14:06.327Z,15.90
2023-10-10T18:16:35.340Z,13.10
2023-10-10T18:19:02.807Z,15.02
2023-10-10T18:21:31.105Z,16.38
2023-10-10T18:23:58.425Z,15.45
2023-10-10T18:26:26.017Z,14.82
2023-10-10T18:28:54.841Z,11.40
2023-10-10T18:31:30.768Z,12.82
2023-10-10T18:33:58.522Z,13.43
2023-10-10T18:36:25.738Z,11.63
2023-10-10T18:38:53.701Z,11.35
2023-10-10T18:41:24.734Z,13.50
2023-10-10T18:43:52.272Z,11.13
2023-10-10T18:46:19.470Z,14.70
2023-10-10T18:48:46.925Z,11.45
2023-10-10T18:51:15.197Z,11.52
2023-10-10T18:53:42.725Z,13.25
2023-10-10T18:56:10.190Z,12.27
2023-10-10T18:58:39.660Z,15.52
2023-10-10T19:01:15.096Z,11.60
2023-10-10T19:03:49.090Z,13.90
2023-10-10T19:06:19.008Z,14.50
2023-10-10T19:08:49.796Z,10.85
2023-10-10T19:11:24.546Z,14.50
2023-10-10T19:13:51.912Z,13.18
2023-10-10T19:16:19.390Z,10.23
2023-10-10T19:18:47.330Z,12.20
2023-10-10T19:21:16.656Z,9.45
2023-10-10T19:23:44.871Z,13.05
2023-10-10T19:26:13.871Z,9.68
2023-10-10T19:28:42.970Z,9.40
2023-10-10T19:31:10.594Z,11.32
2023-10-10T19:33:38.197Z,11.52
2023-10-10T19:36:09.189Z,13.10
2023-10-10T19:38:36.631Z,13.15
2023-10-10T19:41:09.459Z,8.93
2023-10-10T19:43:40.293Z,11.15
2023-10-10T19:46:11.762Z,13.13
2023-10-10T19:48:41.731Z,10.98
2023-10-10T19:51:19.426Z,10.80
2023-10-10T19:53:50.026Z,10.45
2023-10-10T19:56:17.812Z,11.10
2023-10-10T19:58:46.943Z,10.63
2023-10-10T20:01:14.581Z,12.65
2023-10-10T20:03:43.526Z,10.52
2023-10-10T20:06:21.071Z,11.90
2023-10-10T20:08:55.047Z,12.30
2023-10-10T20:11:25.395Z,10.18
2023-10-10T20:13:52.952Z,12.05
2023-10-10T20:16:22.660Z,11.60
2023-10-10T20:18:54.616Z,13.52
2023-10-10T20:21:25.360Z,11.30
2023-10-10T20:23:52.497Z,10.20
2023-10-10T20:26:20.735Z,12.35
2023-10-10T20:28:48.975Z,10.68
2023-10-10T20:31:18.415Z,12.57
2023-10-10T20:33:48.108Z,12.07
2023-10-10T20:36:16.161Z,9.05
2023-10-10T20:38:44.457Z,10.55
2023-10-10T20:41:12.592Z,13.20
2023-10-10T20:43:41.010Z,8.90
2023-10-10T20:46:08.426Z,10.40
2023-10-10T20:48:36.360Z,9.55
2023-10-10T20:51:04.745Z,10.73
2023-10-10T20:53:32.924Z,11.65
2023-10-10T20:56:02.145Z,7.85
2023-10-10T20:58:30.270Z,12.55
2023-10-10T21:00:57.682Z,9.70
2023-10-10T21:03:25.205Z,12.25
2023-10-10T21:05:52.494Z,11.93
2023-10-10T21:08:19.727Z,10.80
2023-10-10T21:10:47.223Z,10.80
2023-10-10T21:13:14.581Z,9.80
2023-10-10T21:15:45.553Z,9.32
2023-10-10T21:18:12.860Z,12.68
2023-10-10T21:20:56.231Z,10.63
2023-10-10T21:23:28.265Z,13.93
2023-10-10T21:25:55.607Z,13.10
2023-10-10T21:28:23.994Z,10.13
2023-10-10T21:30:52.187Z,9.05
2023-10-10T21:33:19.623Z,12.52
2023-10-10T21:35:49.047Z,9.50
2023-10-10T21:38:16.235Z,11.63
2023-10-10T21:40:43.441Z,12.15
2023-10-10T21:43:11.232Z,11.70
2023-10-10T21:45:40.011Z,13.48
2023-10-10T21:48:11.146Z,11.45
2023-10-10T21:50:42.454Z,9.75
2023-10-10T21:53:10.205Z,14.05
2023-10-10T21:55:38.475Z,8.98
2023-10-10T21:58:06.306Z,10.93
2023-10-10T22:00:34.042Z,12.18
2023-10-10T22:03:05.364Z,15.40
2023-10-10T22:05:33.390Z,11.30
2023-10-10T22:08:00.732Z,11.00
2023-10-10T22:10:28.425Z,12.23
2023-10-10T22:12:56.318Z,15.57
2023-10-10T22:15:26.837Z,12.82
2023-10-10T22:17:58.026Z,12.77
2023-10-10T22:20:28.989Z,14.30
2023-10-10T22:22:56.389Z,12.50
2023-10-10T22:25:23.950Z,15.60
2023-10-10T22:27:52.547Z,17.05
2023-10-10T22:30:25.479Z,13.40
2023-10-10T22:32:53.690Z,15.27
2023-10-10T22:35:22.425Z,15.20
2023-10-10T22:37:50.693Z,15.35
2023-10-10T22:40:18.685Z,15.45
2023-10-10T22:42:46.031Z,15.68
2023-10-10T22:45:20.549Z,14.50
2023-10-10T22:47:48.776Z,14.35
2023-10-10T22:50:16.296Z,17.55
2023-10-10T22:52:45.878Z,14.65
2023-10-10T22:55:14.110Z,17.08
2023-10-10T22:57:42.839Z,15.48
2023-10-10T23:00:14.533Z,17.33
2023-10-10T23:02:43.299Z,16.60
2023-10-10T23:05:14.389Z,14.73
2023-10-10T23:07:42.708Z,19.95
2023-10-10T23:10:17.351Z,16.73
2023-10-10T23:12:44.823Z,15.07
2023-10-10T23:15:12.712Z,18.17
2023-10-10T23:17:41.173Z,18.65
2023-10-10T23:20:22.119Z,19.30
2023-10-10T23:22:55.217Z,17.15
2023-10-10T23:25:22.436Z,17.42
2023-10-10T23:27:51.357Z,23.05
2023-10-10T23:30:22.164Z,18.63
2023-10-10T23:32:50.808Z,16.30
2023-10-10T23:35:22.627Z,18.50
2023-10-10T23:37:59.263Z,16.05
2023-10-10T23:40:26.837Z,16.65
2023-10-10T23:42:54.349Z,16.40
2023-10-10T23:45:23.727Z,21.77
2023-10-10T23:47:52.971Z,20.58
2023-10-10T23:50:23.794Z,18.08
2023-10-10T23:52:55.344Z,17.90
2023-10-10T23:55:23.398Z,17.75
2023-10-10T23:57:51.369Z,17.60
